Snug Harbor, Washington
Current Conditions -  °F | °C
As of 1:53 AM on Saturday 29 Nov 2014 (Local Time) from KBLI Reporting Station
Scattered Clouds Scattered Clouds  
Wind Chill: 11°   Ceiling: Unl
Heat Index: 25°   Visibility: 10mi
Dew Point: 13°   Wind: 18mph
Humidity: 60%   Direction: 10°N
Pressure: 29.58"   Gusts: 29mph
Location:  48.6939°N, 122.666°W
Report Text: KBLI 290953Z AUTO 01016G25KT 10SM FEW044 SCT055 M04/M11 A2958 RMK AO2 SLP027 T10391106
Loading
Personal Weather Stations






























Interactive Weather Map New forecast layout! Learn more

10-Day Weather Forecast

Advertisements
Track Severe Weather on mobile